Time;durP1;ratioP1;P1;durP2;ratioP2;P2;SDS_P1;SDS_P2;PMS_P1;PMS_P2;Temp;Humidity;BMP_temperature;BMP_pressure;BME280_temperature;BME280_humidity;BME280_pressure;Samples;Min_cycle;Max_cycle;Signal;HPM_P1;HPM_P2
2022/09/14 00:00:50;;;;;;;6.90;1.75;;;12.60;99.90;;;;;;5097255;28;20036;-69
2022/09/14 00:03:17;;;;;;;7.18;2.30;;;12.50;99.90;;;;;;5096938;28;20043;-69
2022/09/14 00:05:42;;;;;;;5.75;1.80;;;12.70;99.90;;;;;;5096386;28;20044;-69
2022/09/14 00:08:08;;;;;;;4.82;1.75;;;12.70;99.90;;;;;;5096301;28;20494;-69
2022/09/14 00:10:39;;;;;;;6.18;1.75;;;12.70;99.90;;;;;;5096546;28;20087;-69
2022/09/14 00:13:04;;;;;;;5.80;1.80;;;12.70;99.90;;;;;;5096705;28;20032;-69
2022/09/14 00:15:30;;;;;;;4.57;1.83;;;12.70;99.90;;;;;;5096696;28;20143;-69
2022/09/14 00:17:56;;;;;;;6.18;1.75;;;12.80;99.90;;;;;;5096518;28;20516;-69
2022/09/14 00:20:21;;;;;;;5.47;1.77;;;12.80;99.90;;;;;;5096799;28;20460;-69
2022/09/14 00:22:47;;;;;;;7.47;1.88;;;12.80;99.90;;;;;;5096316;28;20360;-70
2022/09/14 00:25:13;;;;;;;4.60;1.88;;;12.70;99.90;;;;;;5096150;28;20109;-70
2022/09/14 00:27:39;;;;;;;8.85;1.92;;;12.70;99.90;;;;;;5096851;28;20036;-69
2022/09/14 00:30:05;;;;;;;9.18;2.45;;;12.70;99.90;;;;;;5096542;28;20059;-69
2022/09/14 00:32:31;;;;;;;6.05;1.70;;;12.70;99.90;;;;;;5096349;28;20052;-69
2022/09/14 00:34:56;;;;;;;5.35;1.92;;;12.70;99.90;;;;;;5096700;28;20055;-69
2022/09/14 00:37:22;;;;;;;4.95;1.77;;;12.60;99.90;;;;;;5095507;28;20059;-69
2022/09/14 00:39:48;;;;;;;5.43;1.67;;;12.60;99.90;;;;;;5096010;28;20105;-68
2022/09/14 00:42:18;;;;;;;9.60;2.03;;;12.60;99.90;;;;;;5078301;28;20051;-69
2022/09/14 00:44:46;;;;;;;5.28;1.50;;;12.60;99.90;;;;;;5078419;28;20044;-69
2022/09/14 00:47:15;;;;;;;8.00;2.10;;;12.60;99.90;;;;;;5095989;28;20044;-69
2022/09/14 00:49:42;;;;;;;6.13;1.85;;;12.60;99.90;;;;;;5096291;28;20213;-69
2022/09/14 00:52:27;;;;;;;6.18;1.80;;;12.60;99.90;;;;;;5095820;28;20083;-69
2022/09/14 00:54:58;;;;;;;10.05;1.98;;;12.50;99.90;;;;;;5095200;28;20372;-69
2022/09/14 00:57:26;;;;;;;7.35;2.40;;;12.50;99.90;;;;;;5095825;28;20044;-69
2022/09/14 00:59:53;;;;;;;8.77;2.00;;;12.50;99.90;;;;;;5095784;28;20055;-69
2022/09/14 01:02:21;;;;;;;4.55;1.80;;;12.40;99.90;;;;;;5095696;28;20062;-69
2022/09/14 01:04:48;;;;;;;6.30;2.42;;;12.40;99.90;;;;;;5095458;28;20040;-69
2022/09/14 01:07:25;;;;;;;7.97;2.45;;;12.40;99.90;;;;;;5095641;28;20088;-68
2022/09/14 01:09:56;;;;;;;9.82;2.10;;;12.30;99.90;;;;;;5094834;28;20044;-69
2022/09/14 01:12:42;;;;;;;5.85;2.10;;;12.30;99.90;;;;;;5095681;28;20055;-69
2022/09/14 01:15:26;;;;;;;5.97;2.08;;;12.30;99.90;;;;;;5095537;28;20054;-69
2022/09/14 01:18:20;;;;;;;5.82;2.25;;;12.20;99.90;;;;;;5193736;22;20089;-69
2022/09/14 01:20:57;;;;;;;7.13;2.38;;;12.20;99.90;;;;;;5053188;28;20072;-68
2022/09/14 01:23:47;;;;;;;6.72;2.03;;;12.20;99.90;;;;;;5035913;28;20063;-69
2022/09/14 01:26:47;;;;;;;6.65;2.35;;;12.20;99.90;;;;;;5055267;28;20044;-69
2022/09/14 01:29:37;;;;;;;8.02;2.10;;;12.10;99.90;;;;;;5055179;28;20095;-69
2022/09/14 01:32:07;;;;;;;6.95;2.20;;;12.10;99.90;;;;;;5054930;28;20045;-68
2022/09/14 01:34:38;;;;;;;6.50;2.20;;;12.10;99.90;;;;;;5055075;28;20103;-69
2022/09/14 01:37:14;;;;;;;5.75;2.05;;;12.00;99.90;;;;;;5054502;28;20095;-69
2022/09/14 01:39:44;;;;;;;7.43;2.60;;;12.00;99.90;;;;;;5035189;28;20045;-69
2022/09/14 01:42:13;;;;;;;5.43;2.38;;;12.00;99.90;;;;;;5034743;28;20037;-69
2022/09/14 01:44:43;;;;;;;5.97;2.42;;;11.90;99.90;;;;;;5034874;28;20060;-69
2022/09/14 01:47:19;;;;;;;6.22;2.88;;;12.00;99.90;;;;;;5034783;28;20136;-69
2022/09/14 01:49:53;;;;;;;7.45;3.05;;;11.90;99.90;;;;;;5035029;28;20045;-68
2022/09/14 01:52:32;;;;;;;7.30;2.75;;;11.90;99.90;;;;;;5043482;28;20074;-69
2022/09/14 01:55:45;;;;;;;12.82;3.13;;;11.90;99.90;;;;;;5054564;28;20044;-69
2022/09/14 01:58:19;;;;;;;6.38;2.58;;;11.90;99.90;;;;;;5023999;28;20049;-68
2022/09/14 02:00:46;;;;;;;7.47;2.85;;;11.80;99.90;;;;;;5054564;28;20040;-68
2022/09/14 02:03:18;;;;;;;6.85;2.80;;;11.80;99.90;;;;;;5050872;28;20123;-69
2022/09/14 02:06:02;;;;;;;5.85;3.03;;;11.80;99.90;;;;;;5034984;28;20057;-69
2022/09/14 02:08:28;;;;;;;;;;;11.80;99.90;;;;;;5043401;28;20045;-69
2022/09/14 02:10:55;;;;;;;6.25;3.13;;;11.90;99.90;;;;;;5054640;28;19920;-69
2022/09/14 02:13:21;;;;;;;6.85;3.10;;;11.80;99.90;;;;;;5054550;28;20179;-68
2022/09/14 02:15:47;;;;;;;5.35;2.83;;;11.90;99.90;;;;;;5054373;28;20489;-69
2022/09/14 02:18:12;;;;;;;4.85;2.90;;;11.80;99.90;;;;;;5056270;28;20060;-68
2022/09/14 02:20:53;;;;;;;6.03;3.42;;;11.90;99.90;;;;;;5058878;28;20465;-69
2022/09/14 02:23:19;;;;;;;8.90;3.63;;;12.00;99.90;;;;;;5058572;28;20053;-68
2022/09/14 02:25:45;;;;;;;6.55;3.45;;;12.00;99.90;;;;;;5058240;28;20381;-69
2022/09/14 02:28:11;;;;;;;9.00;3.22;;;12.10;99.90;;;;;;5058305;28;20049;-69
2022/09/14 02:31:05;;;;;;;7.78;3.40;;;12.10;99.90;;;;;;5058516;28;20041;-69
2022/09/14 02:33:42;;;;;;;7.80;4.25;;;12.20;99.90;;;;;;5058389;28;20080;-68
2022/09/14 02:36:21;;;;;;;9.10;3.78;;;12.30;99.90;;;;;;5058369;28;20420;-69
2022/09/14 02:38:57;;;;;;;8.75;3.80;;;12.30;99.90;;;;;;5058143;28;20087;-69
2022/09/14 02:41:38;;;;;;;6.93;3.50;;;12.30;99.90;;;;;;5058213;28;20045;-69
2022/09/14 02:44:17;;;;;;;7.95;3.58;;;12.40;99.90;;;;;;5058189;28;20052;-69
2022/09/14 02:47:02;;;;;;;7.82;3.63;;;12.40;99.90;;;;;;5057847;28;20115;-69
2022/09/14 02:49:53;;;;;;;10.30;3.50;;;12.50;99.90;;;;;;5038511;28;20060;-69
2022/09/14 02:52:46;;;;;;;8.57;3.40;;;12.50;99.90;;;;;;5040149;28;20041;-68
2022/09/14 02:55:16;;;;;;;7.40;3.30;;;12.70;99.90;;;;;;5057782;28;20075;-70
2022/09/14 02:58:01;;;;;;;11.27;4.03;;;12.60;99.90;;;;;;5058192;28;20053;-69
2022/09/14 03:00:28;;;;;;;10.57;4.20;;;12.70;99.90;;;;;;5058148;28;20045;-69
2022/09/14 03:02:53;;;;;;;9.70;3.72;;;12.70;99.90;;;;;;5057105;28;20504;-69
2022/09/14 03:05:20;;;;;;;7.60;4.05;;;12.70;99.90;;;;;;5057949;28;20140;-69
2022/09/14 03:07:45;;;;;;;8.35;4.13;;;12.80;99.90;;;;;;5057535;28;20079;-69
2022/09/14 03:10:11;;;;;;;8.70;3.38;;;12.80;99.90;;;;;;5057724;28;20040;-69
2022/09/14 03:12:38;;;;;;;9.90;4.43;;;12.80;99.90;;;;;;5058208;28;20045;-69
2022/09/14 03:15:04;;;;;;;7.25;3.80;;;12.90;99.90;;;;;;5057897;28;20041;-68
2022/09/14 03:17:30;;;;;;;7.53;3.90;;;12.90;99.90;;;;;;5056583;28;20089;-69
2022/09/14 03:19:56;;;;;;;9.10;3.72;;;12.90;99.90;;;;;;5056783;28;20053;-69
2022/09/14 03:22:21;;;;;;;10.25;3.42;;;13.00;99.90;;;;;;5057439;28;20461;-69
2022/09/14 03:24:47;;;;;;;5.82;3.10;;;13.00;99.90;;;;;;5057606;28;20123;-69
2022/09/14 03:27:12;;;;;;;7.93;3.58;;;13.00;99.90;;;;;;5052371;28;20067;-69
2022/09/14 03:29:38;;;;;;;9.57;3.78;;;13.10;99.90;;;;;;5057471;28;20476;-69
2022/09/14 03:32:04;;;;;;;13.30;3.20;;;13.20;99.90;;;;;;5057265;28;20056;-69
2022/09/14 03:34:29;;;;;;;5.60;3.03;;;13.20;99.90;;;;;;5046445;28;20045;-69
2022/09/14 03:36:55;;;;;;;8.00;3.13;;;13.20;99.90;;;;;;5037202;28;20120;-69
2022/09/14 03:39:20;;;;;;;10.23;3.28;;;13.20;99.90;;;;;;5037157;28;20050;-69
2022/09/14 03:41:46;;;;;;;8.35;3.35;;;13.20;99.90;;;;;;5037058;28;20037;-68
2022/09/14 03:44:11;;;;;;;15.35;3.63;;;13.30;99.90;;;;;;5036988;28;20116;-69
2022/09/14 03:46:37;;;;;;;9.10;3.80;;;13.30;99.90;;;;;;5037175;28;20087;-69
2022/09/14 03:49:03;;;;;;;7.53;3.20;;;13.30;99.90;;;;;;5037235;28;20072;-69
2022/09/14 03:51:28;;;;;;;6.32;3.03;;;13.40;99.90;;;;;;5040282;28;20045;-69
2022/09/14 03:53:54;;;;;;;6.65;3.13;;;13.40;99.90;;;;;;5056942;28;20156;-69
2022/09/14 03:56:21;;;;;;;7.47;3.47;;;13.30;99.90;;;;;;5056936;28;20048;-69
2022/09/14 03:58:48;;;;;;;6.53;2.65;;;13.40;99.90;;;;;;5046445;28;20041;-67
2022/09/14 04:01:16;;;;;;;10.27;2.92;;;13.40;99.90;;;;;;5020318;28;20412;-69
2022/09/14 04:03:42;;;;;;;9.88;3.05;;;13.40;99.90;;;;;;5056944;28;20052;-68
2022/09/14 04:06:08;;;;;;;7.55;3.10;;;13.50;99.90;;;;;;5056340;28;20064;-69
2022/09/14 04:08:37;;;;;;;7.07;3.10;;;13.40;99.90;;;;;;5055079;28;20038;-69
2022/09/14 04:11:25;;;;;;;6.22;3.20;;;13.40;99.90;;;;;;5045631;28;20037;-69
2022/09/14 04:13:52;;;;;;;5.72;2.80;;;13.40;99.90;;;;;;5056674;28;20059;-69
2022/09/14 04:16:19;;;;;;;5.75;3.47;;;13.40;99.90;;;;;;5038508;28;20518;-69
2022/09/14 04:18:45;;;;;;;7.13;3.25;;;13.40;99.90;;;;;;5036707;28;20405;-70
2022/09/14 04:21:20;;;;;;;6.68;3.00;;;13.50;99.90;;;;;;5036593;28;20053;-69
2022/09/14 04:23:46;;;;;;;5.97;3.33;;;13.50;99.90;;;;;;5036521;28;20049;-70
2022/09/14 04:26:16;;;;;;;6.43;2.78;;;13.50;99.90;;;;;;5036528;28;20072;-69
2022/09/14 04:28:42;;;;;;;6.72;3.17;;;13.50;99.90;;;;;;5055870;28;20041;-69
2022/09/14 04:31:09;;;;;;;6.97;2.78;;;13.50;99.90;;;;;;5054672;28;20045;-69
2022/09/14 04:33:37;;;;;;;7.80;2.92;;;13.60;99.90;;;;;;5056237;28;20428;-69
2022/09/14 04:36:07;;;;;;;9.48;2.90;;;13.50;99.90;;;;;;5056289;28;20041;-69
2022/09/14 04:38:34;;;;;;;8.35;3.20;;;13.50;99.90;;;;;;5056110;28;20453;-69
2022/09/14 04:41:07;;;;;;;5.70;2.88;;;13.50;99.90;;;;;;5055463;28;20056;-68
2022/09/14 04:43:33;;;;;;;9.10;3.42;;;13.60;99.90;;;;;;5056058;28;20045;-70
2022/09/14 04:46:03;;;;;;;6.90;2.92;;;13.50;99.90;;;;;;5056068;28;20037;-69
2022/09/14 04:48:34;;;;;;;15.85;3.47;;;13.60;99.90;;;;;;5056053;28;20366;-69
2022/09/14 04:51:04;;;;;;;9.15;3.20;;;13.50;99.90;;;;;;5056081;28;20037;-70
2022/09/14 04:53:33;;;;;;;6.30;3.05;;;13.60;99.90;;;;;;5056139;28;20147;-69
2022/09/14 04:56:00;;;;;;;7.95;3.17;;;13.60;99.90;;;;;;5055621;28;20331;-69
2022/09/14 04:58:27;;;;;;;8.95;3.10;;;13.50;99.90;;;;;;5055647;28;20095;-69
2022/09/14 05:01:22;;;;;;;7.53;3.22;;;13.50;99.90;;;;;;5050690;28;20046;-68
2022/09/14 05:03:48;;;;;;;8.15;3.03;;;13.50;99.90;;;;;;5018466;28;20050;-69
2022/09/14 05:06:16;;;;;;;8.45;3.00;;;13.50;99.90;;;;;;5048184;28;20366;-68
2022/09/14 05:08:43;;;;;;;6.68;2.70;;;13.50;99.90;;;;;;5049587;28;20064;-69
2022/09/14 05:11:12;;;;;;;8.50;3.33;;;13.60;99.90;;;;;;5055982;28;20056;-68
2022/09/14 05:13:38;;;;;;;7.00;3.10;;;13.60;99.90;;;;;;5055517;28;20100;-71
2022/09/14 05:16:16;;;;;;;10.07;3.30;;;13.60;99.90;;;;;;5053098;28;20548;-69
2022/09/14 05:18:42;;;;;;;8.77;3.50;;;13.50;99.90;;;;;;5049256;28;20060;-69
2022/09/14 05:21:15;;;;;;;6.97;3.15;;;13.60;99.90;;;;;;5051651;28;20476;-69
2022/09/14 05:23:41;;;;;;;10.43;3.28;;;13.50;99.90;;;;;;5054904;28;20094;-70
2022/09/14 05:26:07;;;;;;;9.20;3.30;;;13.60;99.90;;;;;;5054965;28;20048;-70
2022/09/14 05:28:34;;;;;;;8.32;3.38;;;13.50;99.90;;;;;;5054926;28;20037;-70
2022/09/14 05:31:06;;;;;;;8.57;2.97;;;13.50;99.90;;;;;;5055273;28;20037;-69
2022/09/14 05:33:33;;;;;;;5.97;3.13;;;13.60;99.90;;;;;;5054878;28;20576;-69
2022/09/14 05:36:04;;;;;;;7.70;3.60;;;13.60;99.90;;;;;;5054979;28;20049;-69
2022/09/14 05:38:31;;;;;;;11.90;3.10;;;13.60;99.90;;;;;;5052917;28;20107;-69
2022/09/14 05:40:57;;;;;;;15.35;3.85;;;13.70;99.90;;;;;;5035001;28;20045;-70
2022/09/14 05:43:23;;;;;;;7.38;3.33;;;13.80;99.90;;;;;;5035145;28;20041;-70
2022/09/14 05:45:49;;;;;;;10.43;3.47;;;13.70;99.90;;;;;;5033005;28;20037;-71
2022/09/14 05:48:15;;;;;;;12.68;3.35;;;13.70;99.90;;;;;;5038160;28;20358;-70
2022/09/14 05:50:40;;;;;;;6.95;3.13;;;13.70;99.90;;;;;;5054432;28;20132;-70
2022/09/14 05:53:06;;;;;;;13.27;3.15;;;13.80;99.90;;;;;;5052893;28;20081;-70
2022/09/14 05:55:32;;;;;;;7.07;3.28;;;13.80;99.90;;;;;;5038396;28;20116;-70
2022/09/14 05:57:57;;;;;;;13.35;3.20;;;13.90;99.90;;;;;;5054263;28;20116;-70
2022/09/14 06:00:23;;;;;;;7.07;3.00;;;13.90;99.90;;;;;;5054545;28;20036;-70
2022/09/14 06:02:51;;;;;;;7.85;2.80;;;13.90;99.90;;;;;;5054429;28;20132;-70
2022/09/14 06:05:18;;;;;;;6.10;2.63;;;14.00;99.90;;;;;;5053667;28;20041;-70
2022/09/14 06:07:44;;;;;;;7.45;3.00;;;14.10;99.90;;;;;;5054865;28;20355;-70
2022/09/14 06:10:10;;;;;;;7.00;2.90;;;14.10;99.90;;;;;;5054129;28;20041;-70
2022/09/14 06:12:36;;;;;;;7.85;2.65;;;14.10;99.90;;;;;;5054008;28;20055;-70
2022/09/14 06:15:01;;;;;;;9.70;3.58;;;14.20;99.90;;;;;;5054285;28;20120;-68
2022/09/14 06:17:30;;;;;;;7.85;3.42;;;14.20;99.90;;;;;;5053290;28;20040;-69
2022/09/14 06:19:56;;;;;;;9.73;3.03;;;14.30;99.90;;;;;;5039530;28;20454;-69
2022/09/14 06:22:22;;;;;;;7.55;3.08;;;14.40;99.90;;;;;;5034028;28;20116;-71
2022/09/14 06:24:47;;;;;;;12.02;3.17;;;14.50;99.90;;;;;;5041643;28;20444;-71
2022/09/14 06:27:14;;;;;;;8.70;3.08;;;14.60;99.90;;;;;;5054215;28;20045;-71
2022/09/14 06:29:39;;;;;;;13.13;3.42;;;14.70;99.90;;;;;;5054086;28;20468;-70
2022/09/14 06:32:05;;;;;;;6.18;3.08;;;14.80;99.90;;;;;;5054170;28;20057;-70
2022/09/14 06:34:31;;;;;;;7.97;3.08;;;14.90;99.90;;;;;;5053758;28;20037;-71
2022/09/14 06:36:56;;;;;;;5.22;2.70;;;15.00;99.90;;;;;;5054105;28;20424;-70
2022/09/14 06:39:23;;;;;;;4.45;2.70;;;14.90;99.90;;;;;;5054002;28;20085;-70
2022/09/14 06:41:50;;;;;;;5.55;2.88;;;15.10;99.90;;;;;;5054265;28;20464;-69
2022/09/14 06:44:17;;;;;;;11.02;2.97;;;15.20;99.90;;;;;;5053554;28;20053;-70
2022/09/14 06:46:43;;;;;;;6.38;2.72;;;15.20;99.90;;;;;;5053353;28;20064;-69
2022/09/14 06:49:12;;;;;;;7.57;3.35;;;15.30;99.90;;;;;;5041720;28;20073;-70
2022/09/14 06:51:40;;;;;;;9.57;3.47;;;15.20;99.90;;;;;;5033983;28;20473;-70
2022/09/14 06:54:06;;;;;;;8.60;3.55;;;15.30;99.90;;;;;;5034249;28;20076;-71
2022/09/14 06:56:35;;;;;;;6.28;2.53;;;15.40;99.90;;;;;;5034136;28;20045;-71
2022/09/14 06:59:01;;;;;;;6.25;3.00;;;15.50;99.90;;;;;;5033804;28;20045;-69
2022/09/14 07:01:27;;;;;;;10.00;2.90;;;15.60;99.90;;;;;;5034275;28;20056;-71
2022/09/14 07:03:53;;;;;;;8.02;2.45;;;15.70;99.90;;;;;;5018305;28;20049;-72
2022/09/14 07:06:21;;;;;;;7.22;2.58;;;15.80;99.90;;;;;;5037824;28;20060;-71
2022/09/14 07:08:48;;;;;;;5.55;2.15;;;15.90;99.90;;;;;;5037560;28;20456;-72
2022/09/14 07:11:16;;;;;;;4.75;2.17;;;16.00;99.90;;;;;;5037493;28;20049;-71
2022/09/14 07:13:42;;;;;;;5.70;2.65;;;16.10;99.90;;;;;;5038016;28;20050;-71
2022/09/14 07:16:08;;;;;;;9.38;2.13;;;16.20;99.90;;;;;;5037652;28;20049;-72
2022/09/14 07:18:35;;;;;;;5.63;2.28;;;16.30;99.90;;;;;;5047741;28;20045;-71
2022/09/14 07:21:06;;;;;;;5.82;1.50;;;16.40;99.90;;;;;;5056534;28;20077;-71
2022/09/14 07:23:32;;;;;;;5.10;2.05;;;16.40;99.90;;;;;;5057185;28;20393;-71
2022/09/14 07:26:04;;;;;;;8.23;2.05;;;16.40;99.90;;;;;;5056948;28;20056;-71
2022/09/14 07:28:30;;;;;;;6.65;1.80;;;16.50;99.90;;;;;;5056912;28;20128;-71
2022/09/14 07:30:56;;;;;;;7.65;1.65;;;16.50;99.90;;;;;;5039932;28;20235;-70
2022/09/14 07:33:22;;;;;;;5.30;1.98;;;16.70;99.90;;;;;;5057459;28;20037;-71
2022/09/14 07:35:48;;;;;;;4.85;1.55;;;16.80;99.90;;;;;;5056952;28;20049;-71
2022/09/14 07:38:13;;;;;;;5.20;1.50;;;16.90;99.90;;;;;;5056987;28;20396;-70
2022/09/14 07:40:39;;;;;;;7.18;1.95;;;17.00;99.90;;;;;;5021949;28;20056;-71
2022/09/14 07:43:05;;;;;;;4.63;1.17;;;17.10;99.90;;;;;;5039519;28;20045;-70
2022/09/14 07:45:31;;;;;;;3.78;1.25;;;17.20;99.90;;;;;;5053116;28;20421;-71
2022/09/14 07:47:56;;;;;;;8.38;1.50;;;17.30;99.90;;;;;;5048418;28;20030;-71
2022/09/14 07:50:22;;;;;;;3.30;1.10;;;17.40;99.90;;;;;;5036175;28;20111;-71
2022/09/14 07:52:50;;;;;;;5.60;1.10;;;17.40;99.90;;;;;;5036935;28;20362;-70
2022/09/14 07:55:17;;;;;;;6.15;1.30;;;17.50;99.90;;;;;;5036436;28;20077;-69
2022/09/14 07:57:43;;;;;;;5.63;1.48;;;17.60;99.90;;;;;;5036551;28;20076;-70
2022/09/14 08:00:10;;;;;;;7.03;1.30;;;17.60;99.90;;;;;;5036271;28;20112;-70
2022/09/14 08:02:36;;;;;;;2.92;1.02;;;17.70;99.90;;;;;;5036588;28;20176;-71
2022/09/14 08:05:01;;;;;;;4.63;1.20;;;17.90;99.90;;;;;;5036661;28;20080;-71
2022/09/14 08:07:27;;;;;;;5.32;1.30;;;18.00;99.90;;;;;;5046361;28;20051;-71
2022/09/14 08:09:53;;;;;;;3.50;1.33;;;18.00;99.90;;;;;;5056565;28;20037;-71
2022/09/14 08:12:18;;;;;;;3.25;1.17;;;18.10;99.90;;;;;;5056384;28;20362;-71
2022/09/14 08:14:44;;;;;;;5.55;1.23;;;18.20;99.90;;;;;;5055524;28;20045;-70
2022/09/14 08:17:09;;;;;;;5.32;1.63;;;18.10;99.90;;;;;;5052482;28;20041;-71
2022/09/14 08:19:36;;;;;;;7.63;1.40;;;18.10;99.90;;;;;;5036410;28;20072;-71
2022/09/14 08:22:03;;;;;;;4.85;1.13;;;18.20;99.90;;;;;;5036577;28;20052;-71
2022/09/14 08:24:29;;;;;;;7.78;1.38;;;18.10;99.90;;;;;;5018870;28;20046;-71
2022/09/14 08:26:55;;;;;;;4.63;1.30;;;18.20;99.90;;;;;;5035916;28;20489;-70
2022/09/14 08:29:21;;;;;;;7.18;1.30;;;18.20;99.90;;;;;;5036674;28;20041;-71
2022/09/14 08:31:47;;;;;;;11.13;1.80;;;18.40;99.90;;;;;;5037860;28;20053;-71
2022/09/14 08:34:14;;;;;;;6.25;1.45;;;18.50;99.90;;;;;;5055641;28;20048;-71
2022/09/14 08:36:41;;;;;;;10.20;1.73;;;18.60;99.90;;;;;;5055759;28;20048;-71
2022/09/14 08:39:09;;;;;;;8.00;1.38;;;18.60;99.90;;;;;;5038116;28;20044;-70
2022/09/14 08:41:54;;;;;;;11.57;1.88;;;18.70;99.90;;;;;;5055962;28;20048;-71
2022/09/14 08:44:30;;;;;;;7.95;1.80;;;18.70;99.90;;;;;;5055997;28;20392;-70
2022/09/14 08:47:04;;;;;;;7.00;1.27;;;18.70;99.90;;;;;;5054503;28;20135;-70
2022/09/14 08:49:53;;;;;;;3.83;1.05;;;18.60;99.90;;;;;;5035722;28;20068;-70
2022/09/14 08:52:35;;;;;;;5.60;1.60;;;18.80;99.90;;;;;;5035709;28;20438;-70
2022/09/14 08:55:15;;;;;;;7.15;1.55;;;18.90;99.90;;;;;;5035910;28;20433;-71
2022/09/14 08:58:13;;;;;;;8.98;1.25;;;19.00;99.90;;;;;;5034928;28;20072;-71
2022/09/14 09:01:00;;;;;;;6.50;1.52;;;19.10;99.90;;;;;;4996980;28;20552;-71
2022/09/14 09:04:03;;;;;;;5.10;1.30;;;19.20;99.90;;;;;;5035999;28;20401;-71
2022/09/14 09:06:55;;;;;;;7.22;1.65;;;19.20;99.90;;;;;;5035376;28;20045;-71
2022/09/14 09:09:38;;;;;;;9.73;2.20;;;19.30;99.90;;;;;;5035556;28;20037;-71
2022/09/14 09:12:05;;;;;;;5.85;1.48;;;19.40;99.90;;;;;;5035785;28;20079;-71
2022/09/14 09:14:34;;;;;;;7.38;1.30;;;19.40;99.90;;;;;;5035557;28;20124;-71
2022/09/14 09:17:09;;;;;;;7.60;1.50;;;19.60;99.90;;;;;;5036587;28;20080;-71
2022/09/14 09:19:47;;;;;;;12.30;1.98;;;19.80;99.90;;;;;;5054284;28;20072;-71
2022/09/14 09:22:16;;;;;;;8.45;1.60;;;20.00;99.90;;;;;;5055120;28;20037;-71
2022/09/14 09:24:46;;;;;;;11.50;2.05;;;20.20;99.90;;;;;;5055309;28;20461;-71
2022/09/14 09:27:14;;;;;;;10.05;2.13;;;20.40;99.90;;;;;;5054381;28;20033;-71
2022/09/14 09:29:41;;;;;;;6.80;1.73;;;20.70;99.90;;;;;;5020163;28;20111;-71
2022/09/14 09:32:12;;;;;;;9.68;1.48;;;20.60;99.90;;;;;;5054541;28;20051;-71
2022/09/14 09:34:38;;;;;;;4.53;1.40;;;20.40;99.90;;;;;;5054558;28;20463;-71
2022/09/14 09:37:04;;;;;;;6.85;1.13;;;20.50;99.90;;;;;;5054940;28;20041;-71
2022/09/14 09:39:30;;;;;;;7.38;1.70;;;20.60;99.90;;;;;;5054536;28;20138;-70
2022/09/14 09:42:11;;;;;;;13.10;1.98;;;20.70;99.90;;;;;;5054535;28;20037;-71
2022/09/14 09:45:01;;;;;;;6.90;1.63;;;20.70;99.90;;;;;;5032507;28;20134;-70
2022/09/14 09:47:40;;;;;;;8.40;1.40;;;20.80;99.90;;;;;;5047054;28;20072;-71
2022/09/14 09:50:12;;;;;;;5.72;1.67;;;20.80;99.90;;;;;;5034531;28;20072;-71
2022/09/14 09:52:47;;;;;;;6.95;1.55;;;21.00;99.90;;;;;;5034596;28;20096;-71
2022/09/14 09:55:22;;;;;;;8.07;1.67;;;21.10;99.90;;;;;;5049344;28;20072;-72
2022/09/14 09:57:48;;;;;;;5.60;1.42;;;21.20;99.90;;;;;;5034947;28;20049;-71
2022/09/14 10:00:21;;;;;;;10.43;1.52;;;21.20;99.90;;;;;;5051056;28;20049;-71
2022/09/14 10:02:47;;;;;;;3.08;1.10;;;21.20;99.90;;;;;;5054214;28;20044;-71
2022/09/14 10:05:13;;;;;;;7.15;1.20;;;21.20;99.90;;;;;;5054516;28;20048;-70
2022/09/14 10:07:50;;;;;;;4.63;1.27;;;20.90;99.90;;;;;;5052170;28;20053;-71
2022/09/14 10:10:19;;;;;;;5.80;1.23;;;20.90;99.90;;;;;;5047832;28;20056;-71
2022/09/14 10:13:04;;;;;;;6.80;1.55;;;21.10;99.90;;;;;;5048026;28;20049;-70
2022/09/14 10:15:32;;;;;;;6.47;1.85;;;21.00;99.90;;;;;;5050700;28;20589;-70
2022/09/14 10:18:10;;;;;;;6.63;1.20;;;21.20;99.90;;;;;;5041886;28;20058;-71
2022/09/14 10:21:00;;;;;;;7.28;1.38;;;21.40;99.90;;;;;;5034337;28;20472;-72
2022/09/14 10:23:29;;;;;;;5.90;1.40;;;21.40;99.90;;;;;;5034353;28;20089;-73
2022/09/14 10:26:13;;;;;;;5.43;1.20;;;21.50;99.90;;;;;;5034547;28;20049;-72
2022/09/14 10:28:49;;;;;;;10.68;1.42;;;21.30;99.60;;;;;;4999418;28;20054;-73
2022/09/14 10:31:18;;;;;;;6.40;1.25;;;21.40;99.90;;;;;;5034079;28;20485;-73
2022/09/14 10:33:45;;;;;;;6.07;1.38;;;21.50;99.90;;;;;;5034310;28;20128;-73
2022/09/14 10:36:32;;;;;;;5.20;1.45;;;21.80;99.90;;;;;;5035864;28;20454;-73
2022/09/14 10:39:31;;;;;;;3.88;1.17;;;22.10;99.00;;;;;;5056454;28;20373;-74
2022/09/14 10:42:00;;;;;;;5.28;1.40;;;22.10;99.20;;;;;;5058117;28;20063;-73
2022/09/14 10:44:34;;;;;;;7.15;1.45;;;22.50;99.90;;;;;;5056932;28;20045;-73
2022/09/14 10:47:21;;;;;;;6.10;1.15;;;22.50;97.60;;;;;;5058031;28;20048;-71
2022/09/14 10:50:10;;;;;;;6.72;1.35;;;22.70;96.90;;;;;;5058255;28;20045;-71
2022/09/14 10:53:05;;;;;;;11.35;1.20;;;22.80;97.70;;;;;;5041826;28;20045;-72
2022/09/14 10:55:58;;;;;;;7.00;1.30;;;22.70;96.20;;;;;;5037900;28;20049;-71
2022/09/14 10:58:39;;;;;;;8.73;1.63;;;22.50;96.50;;;;;;5038094;28;20061;-72
2022/09/14 11:01:20;;;;;;;3.55;1.10;;;22.20;96.90;;;;;;5037733;28;20045;-72
2022/09/14 11:04:12;;;;;;;7.45;1.40;;;22.10;96.90;;;;;;5038022;28;20059;-71
2022/09/14 11:06:46;;;;;;;7.45;1.50;;;22.00;98.20;;;;;;5037773;28;20049;-71
2022/09/14 11:09:45;;;;;;;6.00;1.30;;;21.80;97.60;;;;;;5037141;28;20049;-70
2022/09/14 11:12:20;;;;;;;4.13;1.15;;;21.70;97.70;;;;;;5020137;28;20053;-71
2022/09/14 11:15:36;;;;;;;4.70;1.02;;;21.60;98.80;;;;;;5037764;28;20046;-71
2022/09/14 11:18:04;;;;;;;5.40;1.20;;;21.60;98.00;;;;;;4956822;29;20187;-70
2022/09/14 11:21:02;;;;;;;9.90;1.33;;;21.50;98.00;;;;;;5030114;28;20053;-70
2022/09/14 11:23:53;;;;;;;6.15;1.42;;;21.40;97.40;;;;;;5037502;28;20475;-70
2022/09/14 11:26:31;;;;;;;8.68;1.15;;;21.30;97.70;;;;;;5037418;28;20038;-70
2022/09/14 11:28:56;;;;;;;8.32;1.23;;;21.30;98.50;;;;;;5049170;28;20040;-70
2022/09/14 11:31:34;;;;;;;5.80;1.48;;;21.20;98.60;;;;;;5056327;28;20067;-72
2022/09/14 11:34:19;;;;;;;6.60;1.58;;;21.10;98.60;;;;;;5056961;28;20365;-71
2022/09/14 11:37:18;;;;;;;6.38;1.35;;;21.00;98.50;;;;;;5046338;28;20038;-71
2022/09/14 11:39:48;;;;;;;7.72;1.42;;;20.90;99.00;;;;;;5032156;28;20092;-70
2022/09/14 11:42:23;;;;;;;7.43;1.60;;;21.10;99.20;;;;;;5037386;28;20045;-70
2022/09/14 11:45:04;;;;;;;7.25;1.70;;;21.20;98.70;;;;;;5036925;28;20103;-69
2022/09/14 11:47:37;;;;;;;5.65;1.35;;;21.10;98.30;;;;;;5037214;28;20099;-69
2022/09/14 11:50:14;;;;;;;;;;;21.00;98.40;;;;;;5035919;28;20496;-70
2022/09/14 11:52:40;;;;;;;5.75;1.75;;;21.00;97.90;;;;;;5052073;28;20007;-70
2022/09/14 11:55:14;;;;;;;6.40;1.45;;;20.80;98.40;;;;;;5056837;28;20125;-70
2022/09/14 11:57:43;;;;;;;6.65;1.15;;;20.70;98.90;;;;;;5056201;28;20053;-70
2022/09/14 12:00:21;;;;;;;6.03;1.45;;;20.80;99.20;;;;;;5056708;28;20041;-70
2022/09/14 12:03:04;;;;;;;9.82;1.65;;;21.00;99.40;;;;;;5056371;28;20118;-70
2022/09/14 12:05:31;;;;;;;4.65;1.05;;;21.20;99.30;;;;;;5055839;28;20091;-71
2022/09/14 12:08:01;;;;;;;5.97;1.40;;;21.30;98.70;;;;;;5056161;28;20048;-71
2022/09/14 12:10:28;;;;;;;8.00;1.42;;;21.50;99.00;;;;;;5056066;28;20111;-70
2022/09/14 12:13:05;;;;;;;5.63;1.38;;;21.70;98.50;;;;;;5056332;28;20045;-71
2022/09/14 12:15:32;;;;;;;7.57;1.55;;;21.80;97.90;;;;;;5056327;28;20125;-71
2022/09/14 12:18:04;;;;;;;6.90;1.27;;;21.90;98.00;;;;;;5055927;28;20122;-71
2022/09/14 12:20:32;;;;;;;5.65;1.27;;;21.90;97.60;;;;;;5054554;28;20339;-71
2022/09/14 12:23:29;;;;;;;6.18;1.73;;;22.00;97.90;;;;;;5035752;28;20126;-71
2022/09/14 12:26:03;;;;;;;7.50;1.67;;;22.10;97.40;;;;;;5036022;28;20064;-71
2022/09/14 12:28:47;;;;;;;5.85;1.70;;;22.10;96.80;;;;;;5036100;28;20449;-71
2022/09/14 12:31:34;;;;;;;7.00;1.58;;;21.90;96.30;;;;;;5036303;28;20053;-71
2022/09/14 12:34:14;;;;;;;7.20;1.75;;;21.60;97.10;;;;;;5036230;28;20320;-71
2022/09/14 12:36:39;;;;;;;7.03;1.27;;;21.70;96.40;;;;;;5036009;28;20045;-72
2022/09/14 12:39:20;;;;;;;5.97;1.27;;;21.60;96.60;;;;;;5035418;28;20037;-72
2022/09/14 12:41:46;;;;;;;6.00;1.33;;;21.70;97.20;;;;;;5036258;28;20145;-71
2022/09/14 12:44:33;;;;;;;9.82;1.42;;;21.80;97.20;;;;;;5042024;28;20423;-71
2022/09/14 12:47:24;;;;;;;7.90;1.42;;;21.80;97.70;;;;;;5055671;28;20078;-71
2022/09/14 12:49:55;;;;;;;5.13;1.50;;;21.90;97.70;;;;;;5055602;28;20071;-71
2022/09/14 12:52:59;;;;;;;6.22;1.50;;;21.70;96.90;;;;;;5038250;28;20053;-72
2022/09/14 12:55:48;;;;;;;6.47;1.40;;;21.60;96.40;;;;;;5038640;28;20124;-71
2022/09/14 12:58:22;;;;;;;7.25;1.33;;;21.60;96.90;;;;;;5054968;28;20436;-72
2022/09/14 13:00:59;;;;;;;5.93;1.40;;;21.60;97.10;;;;;;5055367;28;20041;-71
2022/09/14 13:03:46;;;;;;;6.35;1.20;;;21.70;97.70;;;;;;5055689;28;20044;-72
2022/09/14 13:06:13;;;;;;;7.32;1.25;;;21.90;97.70;;;;;;5055386;28;20436;-72
2022/09/14 13:08:42;;;;;;;4.70;1.23;;;22.10;98.00;;;;;;5055333;28;20442;-72
2022/09/14 13:11:08;;;;;;;5.93;1.25;;;22.20;96.30;;;;;;5054522;28;20056;-72